Aviation Digital Data Service (ADDS)

Output produced by METARs form (0521 UTC 02 July 2015)
found at http://aviationweather.gov/adds/metars/
 
KOAJ 012320Z 0200/0224 23006KT P6SM FEW040 
     FM020200 20003KT P6SM SCT050 BKN250 
     FM021200 24006KT P6SM SCT050 SCT250 
     FM021600 22010G18KT P6SM SCT050 BKN250 AMD LTD TO CLD VIS AND WIND